aviador You're here:

KRKR Decoded Metar

POTEAU (R KERR) in OK, USA
Report Time2017-09-23 19:35:00
UTC Time2017-09-23 19:58:34
Flight Rules vfr VFR
WindCalm
Visibility9999 m
Phenomena:N/A
Clouds:N/A
Expected CloudBase > 6,000 ft AGL from Temp-Dew spread
CeilingNone
Temp32°C (ISA +18)
Dew Point17°C (41% RH)
Heat Index32.5°C
QNH1014 hPa
Density Alt2,720 ft
Elevation453 ft
Report Wrong Elevation
Raw Report
KRKR 231935Z AUTO 00000KT 10SM CLR 32/17 A2994 RMK AO2=

Extra information for KRKR:More info

Metar Taf Metar & Taf Last 4 Metars F.Rules Stats Wind Profile Meteogram Temp Stats Airport Information Weather charts Add Link Nearby VenuesMetar ALERT Operation Metar Decoded Social comments

AIRNAV info for KRKR